Landrum, Texas
Current Conditions -  °F | °C
As of 2:52 PM on Tuesday 27 Jan 2015 (Local Time) from KHRL Reporting Station
Clear Clear  
Wind Chill: 80°   Ceiling: Unl
Heat Index: 80°   Visibility: 10mi
Dew Point: 36°   Wind: 0mph
Humidity: 20%   Direction: NA
Pressure: 30.15"   Gusts: NA
Location:  26.1784°N, 97.6678°W
Report Text: KHRL 272052Z 00000KT 10SM CLR 27/02 A3015 RMK AO2 SLP210 T02670022 56025
Loading
Personal Weather Stations






























Interactive Weather Map New forecast layout! Learn more

10-Day Weather Forecast

Advertisements
Track Severe Weather on mobile